createdAt,value
2022-08-23T00:12:33.161Z,1014.9
2022-08-23T00:27:29.471Z,1014.9
2022-08-23T00:42:25.412Z,1014.9
2022-08-23T00:57:22.086Z,1014.8
2022-08-23T01:12:18.594Z,1014.9
2022-08-23T01:27:13.762Z,1015
2022-08-23T01:42:09.042Z,1015
2022-08-23T01:57:04.561Z,1015.1
2022-08-23T02:12:00.872Z,1015
2022-08-23T02:26:57.227Z,1015.1
2022-08-23T02:41:53.241Z,1015.2
2022-08-23T02:56:49.629Z,1015.3
2022-08-23T03:11:45.575Z,1015.3
2022-08-23T03:26:41.656Z,1015.2
2022-08-23T03:41:37.444Z,1015.3
2022-08-23T03:56:33.314Z,1015.5
2022-08-23T04:11:29.164Z,1015.7
2022-08-23T04:26:29.746Z,1015.9
2022-08-23T04:41:21.308Z,1016
2022-08-23T04:56:17.382Z,1016.2
2022-08-23T05:11:14.024Z,1016.3
2022-08-23T05:26:10.228Z,1016.3
2022-08-23T05:41:06.900Z,1016.4
2022-08-23T05:56:03.537Z,1016.6
2022-08-23T06:11:00.435Z,1016.7
2022-08-23T06:25:57.105Z,1016.7
2022-08-23T06:40:53.981Z,1016.7
2022-08-23T06:55:50.615Z,1016.7
2022-08-23T07:10:47.581Z,1016.8
2022-08-23T07:25:44.012Z,1016.8
2022-08-23T07:40:40.938Z,1016.9
2022-08-23T07:55:37.751Z,1017
2022-08-23T08:10:34.088Z,1017.1
2022-08-23T08:25:30.503Z,1017.1
2022-08-23T08:40:27.572Z,1017
2022-08-23T08:55:24.803Z,1016.9
2022-08-23T09:10:21.310Z,1016.9
2022-08-23T09:25:18.503Z,1016.8
2022-08-23T09:40:16.358Z,1016.8
2022-08-23T09:55:13.774Z,1016.7
2022-08-23T10:10:11.543Z,1016.5
2022-08-23T10:25:09.033Z,1016.4
2022-08-23T10:40:06.473Z,1016.4
2022-08-23T10:55:03.630Z,1016.3
2022-08-23T11:10:00.688Z,1016.2
2022-08-23T11:24:57.354Z,1016.1
2022-08-23T11:39:53.140Z,1016.1
2022-08-23T11:54:49.409Z,1015.8
2022-08-23T12:09:46.444Z,1015.6
2022-08-23T12:24:43.398Z,1015.5
2022-08-23T12:39:39.770Z,1015.5
2022-08-23T12:54:36.380Z,1015.4
2022-08-23T13:09:32.466Z,1015.4
2022-08-23T13:24:30.052Z,1015.4
2022-08-23T13:39:23.422Z,1015.3
2022-08-23T13:54:18.829Z,1015.2
2022-08-23T14:09:14.255Z,1015.2
2022-08-23T14:24:10.452Z,1015.1
2022-08-23T14:39:05.986Z,1015.3
2022-08-23T14:54:01.640Z,1015.2
2022-08-23T15:08:57.979Z,1015.2
2022-08-23T15:23:54.445Z,1015.2
2022-08-23T15:38:50.989Z,1015.1
2022-08-23T15:53:46.741Z,1015.1
2022-08-23T16:08:42.534Z,1015
2022-08-23T16:23:38.621Z,1015
2022-08-23T16:38:34.674Z,1015.1
2022-08-23T16:53:30.736Z,1015.2
2022-08-23T17:08:26.487Z,1015.2
2022-08-23T17:23:22.332Z,1015.2
2022-08-23T17:38:18.628Z,1015.4
2022-08-23T17:53:14.250Z,1015.6
2022-08-23T18:08:10.083Z,1015.7
2022-08-23T18:23:05.565Z,1015.9
2022-08-23T18:38:01.057Z,1016.1
2022-08-23T18:52:57.217Z,1016.4
2022-08-23T19:07:53.098Z,1016.5
2022-08-23T19:22:49.409Z,1016.7
2022-08-23T19:37:45.537Z,1016.9
2022-08-23T19:52:40.410Z,1017
2022-08-23T20:07:36.418Z,1017.1
2022-08-23T20:22:32.609Z,1017.3
2022-08-23T20:37:28.409Z,1017.4
2022-08-23T20:52:24.463Z,1017.5
2022-08-23T22:07:04.855Z,1017.6
2022-08-23T22:22:01.003Z,1017.7
2022-08-23T22:36:56.713Z,1017.7
2022-08-23T22:51:54.927Z,1017.7
2022-08-23T23:06:48.746Z,1017.8
2022-08-23T23:21:44.859Z,1017.8
2022-08-23T23:36:40.752Z,1017.9
2022-08-23T23:51:36.981Z,1017.9
